Time;durP1;ratioP1;P1;durP2;ratioP2;P2;SDS_P1;SDS_P2;PMS_P1;PMS_P2;Temp;Humidity;BMP_temperature;BMP_pressure;BME280_temperature;BME280_humidity;BME280_pressure;Samples;Min_cycle;Max_cycle;Signal;HPM_P1;HPM_P2
2022/07/26 00:04:08;;;;;;;7.00;4.25;;;;;;;;;;4366717;81;28515;-92
2022/07/26 00:10:10;;;;;;;7.30;3.90;;;;;;;;;;4375825;79;28468;-90
2022/07/26 00:16:17;;;;;;;7.05;4.33;;;;;;;;;;4389797;81;28459;-89
2022/07/26 00:22:33;;;;;;;7.62;4.08;;;;;;;;;;4379141;79;28577;-90
2022/07/26 00:28:34;;;;;;;5.25;3.70;;;;;;;;;;4355460;81;28448;-91
2022/07/26 00:34:35;;;;;;;6.17;3.92;;;;;;;;;;4363695;81;28547;-91
2022/07/26 00:40:36;;;;;;;6.65;3.87;;;;;;;;;;4362293;79;28513;-91
2022/07/26 00:46:39;;;;;;;4.80;3.65;;;;;;;;;;4402905;80;28482;-91
2022/07/26 00:52:41;;;;;;;6.37;3.58;;;;;;;;;;4288938;81;28533;-91
2022/07/26 00:58:42;;;;;;;5.75;3.90;;;;;;;;;;4364026;80;28472;-89
2022/07/26 01:04:44;;;;;;;5.65;3.75;;;;;;;;;;4356983;80;28551;-91
2022/07/26 01:10:52;;;;;;;7.42;4.00;;;;;;;;;;4399439;79;28543;-91
2022/07/26 01:16:53;;;;;;;6.53;4.05;;;;;;;;;;4338338;80;28576;-92
2022/07/26 01:22:54;;;;;;;6.72;4.08;;;;;;;;;;4333593;81;28488;-91
2022/07/26 01:29:01;;;;;;;7.78;3.90;;;;;;;;;;4345931;80;28499;-92
2022/07/26 01:35:03;;;;;;;6.12;3.85;;;;;;;;;;4370238;80;28497;-92
2022/07/26 01:41:10;;;;;;;7.22;4.10;;;;;;;;;;4362656;80;28643;-92
2022/07/26 01:47:17;;;;;;;10.08;4.33;;;;;;;;;;4327495;80;28453;-91
2022/07/26 01:53:24;;;;;;;6.72;4.35;;;;;;;;;;4380312;80;28558;-91
2022/07/26 01:59:31;;;;;;;6.03;4.25;;;;;;;;;;4360861;80;28460;-91
2022/07/26 02:05:39;;;;;;;6.87;4.30;;;;;;;;;;4336927;80;28498;-91
2022/07/26 02:11:40;;;;;;;5.08;3.90;;;;;;;;;;4337013;80;28501;-90
2022/07/26 02:17:46;;;;;;;8.43;3.90;;;;;;;;;;4365729;81;28496;-88
2022/07/26 02:23:47;;;;;;;5.20;4.28;;;;;;;;;;4331638;80;28587;-89
2022/07/26 02:29:48;;;;;;;10.43;4.70;;;;;;;;;;4430707;79;28498;-89
2022/07/26 02:35:55;;;;;;;7.92;4.15;;;;;;;;;;4456479;79;28484;-90
2022/07/26 02:42:01;;;;;;;5.65;4.10;;;;;;;;;;4448396;78;28459;-89
2022/07/26 02:48:11;;;;;;;;;;;;;;;;;;4455938;79;28532;-88
2022/07/26 02:54:16;;;;;;;7.85;4.47;;;;;;;;;;4371281;80;20215;-88
2022/07/26 03:00:26;;;;;;;;;;;;;;;;;;4425811;79;28464;-89
2022/07/26 03:06:25;;;;;;;6.72;4.22;;;;;;;;;;4437747;79;20549;-89
2022/07/26 03:12:31;;;;;;;7.40;4.35;;;;;;;;;;4416316;79;28457;-90
2022/07/26 03:18:38;;;;;;;5.55;4.30;;;;;;;;;;4440167;79;28470;-90
2022/07/26 03:24:39;;;;;;;7.40;4.10;;;;;;;;;;4415524;78;28463;-92
2022/07/26 03:30:40;;;;;;;5.75;3.85;;;;;;;;;;4441035;78;28531;-90
2022/07/26 03:36:46;;;;;;;5.87;4.12;;;;;;;;;;4450507;78;28517;-90
2022/07/26 03:42:53;;;;;;;6.53;4.37;;;;;;;;;;4473316;78;28445;-87
2022/07/26 03:48:54;;;;;;;4.95;3.67;;;;;;;;;;4458410;78;28432;-86
2022/07/26 03:54:55;;;;;;;8.25;4.12;;;;;;;;;;4453455;78;28470;-88
2022/07/26 04:00:56;;;;;;;7.37;4.35;;;;;;;;;;4410458;79;28657;-90
2022/07/26 04:07:02;;;;;;;6.83;3.75;;;;;;;;;;4375568;80;28428;-88
2022/07/26 04:13:09;;;;;;;5.92;4.05;;;;;;;;;;4374875;80;28503;-88
2022/07/26 04:19:09;;;;;;;6.35;4.30;;;;;;;;;;4460240;78;28507;-89
2022/07/26 04:25:10;;;;;;;6.10;4.55;;;;;;;;;;4443437;78;28555;-87
2022/07/26 04:31:11;;;;;;;6.65;4.35;;;;;;;;;;4427055;78;28503;-86
2022/07/26 04:37:12;;;;;;;5.87;3.95;;;;;;;;;;4455183;78;28518;-87
2022/07/26 04:43:13;;;;;;;5.83;4.33;;;;;;;;;;4442121;78;28473;-87
2022/07/26 04:49:14;;;;;;;12.30;4.85;;;;;;;;;;4444682;78;28504;-86
2022/07/26 04:55:18;;;;;;;10.95;5.33;;;;;;;;;;4461261;78;28540;-84
2022/07/26 05:01:19;;;;;;;14.73;6.12;;;;;;;;;;4442666;78;28606;-83
2022/07/26 05:07:19;;;;;;;11.65;6.58;;;;;;;;;;4456877;78;28496;-83
2022/07/26 05:13:20;;;;;;;9.80;5.90;;;;;;;;;;4462996;78;28560;-84
2022/07/26 05:19:21;;;;;;;16.55;6.33;;;;;;;;;;4445467;78;28492;-84
2022/07/26 05:25:22;;;;;;;13.05;6.47;;;;;;;;;;4438697;78;29458;-85
2022/07/26 05:31:24;;;;;;;7.70;5.85;;;;;;;;;;4446566;78;28521;-86
2022/07/26 05:37:25;;;;;;;10.00;6.15;;;;;;;;;;4422419;78;28584;-88
2022/07/26 05:43:26;;;;;;;9.10;6.05;;;;;;;;;;4440283;78;28520;-80
2022/07/26 05:49:27;;;;;;;12.10;6.00;;;;;;;;;;4442221;78;28495;-80
2022/07/26 05:55:28;;;;;;;10.23;6.78;;;;;;;;;;4439551;78;28606;-80
2022/07/26 06:01:31;;;;;;;11.85;6.62;;;;;;;;;;4441848;78;28527;-79
2022/07/26 06:07:37;;;;;;;16.35;6.58;;;;;;;;;;4426617;78;28515;-80
2022/07/26 06:13:41;;;;;;;11.35;5.40;;;;;;;;;;4443915;78;28501;-80
2022/07/26 06:19:48;;;;;;;14.30;5.72;;;;;;;;;;4441719;78;28442;-80
2022/07/26 06:25:49;;;;;;;24.65;8.20;;;;;;;;;;4405793;78;28560;-81
2022/07/26 06:31:56;;;;;;;12.33;4.90;;;;;;;;;;4370346;80;28582;-81
2022/07/26 06:38:02;;;;;;;6.62;4.47;;;;;;;;;;4367053;80;28522;-81
2022/07/26 06:44:02;;;;;;;7.40;4.60;;;;;;;;;;4378228;80;28529;-81
2022/07/26 06:50:09;;;;;;;9.05;4.53;;;;;;;;;;4379229;80;28481;-81
2022/07/26 06:56:18;;;;;;;8.60;4.90;;;;;;;;;;4367041;80;28511;-81
2022/07/26 07:02:25;;;;;;;9.70;4.72;;;;;;;;;;4385396;80;28533;-81
2022/07/26 07:08:32;;;;;;;9.58;5.83;;;;;;;;;;4367679;80;28517;-80
2022/07/26 07:14:36;;;;;;;10.25;6.62;;;;;;;;;;4363065;80;28606;-80
2022/07/26 07:20:37;;;;;;;14.35;7.17;;;;;;;;;;4361650;80;28529;-80
2022/07/26 07:26:42;;;;;;;;;;;;;;;;;;4401914;78;28472;-80
2022/07/26 07:32:43;;;;;;;10.65;7.12;;;;;;;;;;4439839;78;20456;-81
2022/07/26 07:38:44;;;;;;;11.33;7.10;;;;;;;;;;4424341;80;28511;-81
2022/07/26 07:44:51;;;;;;;12.05;7.53;;;;;;;;;;4445764;78;28531;-81
2022/07/26 07:50:52;;;;;;;11.15;7.85;;;;;;;;;;4432623;78;28539;-81
2022/07/26 07:56:59;;;;;;;11.40;7.72;;;;;;;;;;4429036;78;28503;-81
2022/07/26 08:03:06;;;;;;;11.45;7.80;;;;;;;;;;4435716;78;28465;-81
2022/07/26 08:09:06;;;;;;;10.75;8.35;;;;;;;;;;4427151;78;28446;-81
2022/07/26 08:15:12;;;;;;;11.48;7.65;;;;;;;;;;4455760;78;28442;-81
2022/07/26 08:21:22;;;;;;;;;;;;;;;;;;4444746;78;28522;-81
2022/07/26 08:27:22;;;;;;;13.45;8.85;;;;;;;;;;4446998;78;20217;-79
2022/07/26 08:33:22;;;;;;;14.00;9.45;;;;;;;;;;4449133;78;28505;-81
2022/07/26 08:39:24;;;;;;;14.98;10.03;;;;;;;;;;4445004;78;28555;-81
2022/07/26 08:45:31;;;;;;;13.50;11.22;;;;;;;;;;4460548;78;28422;-81
2022/07/26 08:51:32;;;;;;;14.15;10.80;;;;;;;;;;4440141;78;28449;-81
2022/07/26 08:57:33;;;;;;;14.45;11.15;;;;;;;;;;4443962;78;28553;-81
2022/07/26 09:03:37;;;;;;;18.85;11.43;;;;;;;;;;4459785;78;28500;-81
2022/07/26 09:09:56;;;;;;;12.78;10.90;;;;;;;;;;4459291;78;28531;-81
2022/07/26 09:16:08;;;;;;;15.35;10.85;;;;;;;;;;4451543;78;28458;-81
2022/07/26 09:22:15;;;;;;;16.35;11.83;;;;;;;;;;4459000;78;28532;-81
2022/07/26 09:28:28;;;;;;;13.03;11.33;;;;;;;;;;4445102;78;28578;-81
2022/07/26 09:34:35;;;;;;;12.68;11.20;;;;;;;;;;4423997;78;28539;-81
2022/07/26 09:40:42;;;;;;;15.93;12.00;;;;;;;;;;4424295;78;28525;-81
2022/07/26 09:46:53;;;;;;;14.07;12.03;;;;;;;;;;4445360;78;28461;-82
2022/07/26 09:53:07;;;;;;;13.68;12.18;;;;;;;;;;4422221;78;28515;-82
2022/07/26 09:59:08;;;;;;;14.68;12.43;;;;;;;;;;4439982;78;28481;-80
2022/07/26 10:05:15;;;;;;;14.30;12.30;;;;;;;;;;4445091;78;28541;-81
2022/07/26 10:11:17;;;;;;;15.55;13.40;;;;;;;;;;4440919;78;28540;-81
2022/07/26 10:17:32;;;;;;;15.88;13.53;;;;;;;;;;4445697;78;28536;-81
2022/07/26 10:23:35;;;;;;;14.50;12.30;;;;;;;;;;4437678;78;28544;-82
2022/07/26 10:29:36;;;;;;;14.63;12.13;;;;;;;;;;4437216;78;28493;-80
2022/07/26 10:35:42;;;;;;;14.90;11.75;;;;;;;;;;4444011;78;28555;-81
2022/07/26 10:41:44;;;;;;;15.40;11.38;;;;;;;;;;4435463;78;28504;-82
2022/07/26 10:48:02;;;;;;;14.55;12.68;;;;;;;;;;4433843;78;28535;-82
2022/07/26 10:54:08;;;;;;;15.90;13.68;;;;;;;;;;4429724;78;28495;-82
2022/07/26 11:00:16;;;;;;;20.97;16.23;;;;;;;;;;4434252;78;28550;-82
2022/07/26 11:06:17;;;;;;;23.02;17.48;;;;;;;;;;4446572;78;28473;-82
2022/07/26 11:12:25;;;;;;;22.30;17.17;;;;;;;;;;4445237;78;28555;-81
2022/07/26 11:18:29;;;;;;;23.38;17.55;;;;;;;;;;4446491;78;28562;-81
2022/07/26 11:24:30;;;;;;;20.57;16.70;;;;;;;;;;4437968;78;28523;-81
2022/07/26 11:30:31;;;;;;;20.72;16.87;;;;;;;;;;4367308;78;28569;-80
2022/07/26 11:36:34;;;;;;;21.55;15.83;;;;;;;;;;4375173;80;28441;-81
2022/07/26 11:42:39;;;;;;;16.50;13.13;;;;;;;;;;4377563;80;28504;-80
2022/07/26 11:48:47;;;;;;;15.13;12.03;;;;;;;;;;4368690;80;28481;-81
2022/07/26 11:54:54;;;;;;;14.15;10.82;;;;;;;;;;4376260;80;28559;-81
2022/07/26 12:01:01;;;;;;;12.93;10.80;;;;;;;;;;4376563;80;28489;-81
2022/07/26 12:07:07;;;;;;;11.57;10.32;;;;;;;;;;4363919;80;28486;-81
2022/07/26 12:13:09;;;;;;;11.33;10.13;;;;;;;;;;4379766;80;28521;-81
2022/07/26 12:19:15;;;;;;;16.95;13.22;;;;;;;;;;4373238;80;28498;-81
2022/07/26 12:25:18;;;;;;;16.82;14.03;;;;;;;;;;4370641;78;28493;-81
2022/07/26 12:31:25;;;;;;;19.40;16.37;;;;;;;;;;4440653;78;28532;-81
2022/07/26 12:37:35;;;;;;;20.90;16.02;;;;;;;;;;4434343;78;28538;-81
2022/07/26 12:43:39;;;;;;;18.65;15.10;;;;;;;;;;4445450;78;28563;-81
2022/07/26 12:49:40;;;;;;;16.70;14.78;;;;;;;;;;4460401;78;28575;-81
2022/07/26 12:55:47;;;;;;;18.70;15.35;;;;;;;;;;4410852;78;28536;-82
2022/07/26 13:01:48;;;;;;;17.52;14.00;;;;;;;;;;4420894;78;28532;-81
2022/07/26 13:07:50;;;;;;;17.65;13.65;;;;;;;;;;4421982;78;28631;-81
2022/07/26 13:13:57;;;;;;;16.52;13.32;;;;;;;;;;4425357;78;28556;-81
2022/07/26 13:19:58;;;;;;;13.28;11.63;;;;;;;;;;4441779;78;28477;-81
2022/07/26 13:25:59;;;;;;;14.75;12.50;;;;;;;;;;4421271;78;28581;-82
2022/07/26 15:54:28;;;;;;;13.20;7.28;;;;;;;;;;4177377;83;28717;-84
2022/07/26 16:00:29;;;;;;;9.53;7.60;;;;;;;;;;4164097;84;28576;-85
2022/07/26 16:06:36;;;;;;;9.43;7.40;;;;;;;;;;4175926;84;28498;-84
2022/07/26 16:12:44;;;;;;;8.68;6.97;;;;;;;;;;4175326;84;28543;-84
2022/07/26 16:18:44;;;;;;;9.05;7.15;;;;;;;;;;4161615;84;28535;-83
2022/07/26 16:24:45;;;;;;;10.68;7.60;;;;;;;;;;4189598;83;28522;-85
2022/07/26 16:30:53;;;;;;;10.53;7.67;;;;;;;;;;4177787;84;28474;-83
2022/07/26 16:36:54;;;;;;;10.55;7.75;;;;;;;;;;4197532;83;28539;-84
2022/07/26 16:42:58;;;;;;;10.68;7.80;;;;;;;;;;4176119;84;28508;-85
2022/07/26 16:49:05;;;;;;;10.32;7.67;;;;;;;;;;4089916;86;28550;-86
2022/07/26 16:55:10;;;;;;;10.10;7.72;;;;;;;;;;4168898;84;28498;-83
2022/07/26 17:01:11;;;;;;;11.48;7.62;;;;;;;;;;4180742;83;28503;-87
2022/07/26 17:07:20;;;;;;;11.10;7.70;;;;;;;;;;4196525;83;28546;-84
2022/07/26 17:13:20;;;;;;;9.50;7.60;;;;;;;;;;4188641;83;28515;-85
2022/07/26 17:19:27;;;;;;;9.60;7.45;;;;;;;;;;4173869;84;28502;-85
2022/07/26 17:25:28;;;;;;;8.48;7.15;;;;;;;;;;4187630;84;28511;-85
2022/07/26 17:31:29;;;;;;;9.38;7.30;;;;;;;;;;4191795;84;28511;-85
2022/07/26 17:37:30;;;;;;;8.10;5.97;;;;;;;;;;4169397;83;28452;-87
2022/07/26 17:43:36;;;;;;;9.98;7.28;;;;;;;;;;4180776;84;28521;-87
2022/07/26 17:49:43;;;;;;;11.75;7.58;;;;;;;;;;4185023;84;28470;-88
2022/07/26 17:55:44;;;;;;;11.20;7.05;;;;;;;;;;4033499;86;28567;-86
2022/07/26 18:01:52;;;;;;;11.38;7.45;;;;;;;;;;4014818;87;28562;-85
2022/07/26 18:07:59;;;;;;;10.43;7.20;;;;;;;;;;4092399;85;28528;-85
2022/07/26 18:14:08;;;;;;;10.25;6.80;;;;;;;;;;4089728;85;28510;-85
2022/07/26 18:20:17;;;;;;;10.63;6.90;;;;;;;;;;4039579;87;28512;-85
2022/07/26 18:26:18;;;;;;;12.37;6.95;;;;;;;;;;3997545;87;28503;-85
2022/07/26 18:32:27;;;;;;;9.43;6.47;;;;;;;;;;4155753;84;28577;-85
2022/07/26 18:38:35;;;;;;;10.95;6.50;;;;;;;;;;4176878;84;28575;-85
2022/07/26 18:44:38;;;;;;;9.03;7.20;;;;;;;;;;4173780;84;28463;-88
2022/07/26 18:50:40;;;;;;;9.93;6.58;;;;;;;;;;4167275;83;28448;-85
2022/07/26 18:56:41;;;;;;;9.18;6.75;;;;;;;;;;4168054;84;28522;-89
2022/07/26 19:02:51;;;;;;;10.48;7.15;;;;;;;;;;4190506;83;28509;-90
2022/07/26 19:08:58;;;;;;;11.70;6.60;;;;;;;;;;4181344;84;28487;-88
2022/07/26 19:15:01;;;;;;;9.63;6.60;;;;;;;;;;4184593;83;28479;-86
2022/07/26 19:21:01;;;;;;;13.32;7.83;;;;;;;;;;4202512;83;28490;-86
2022/07/26 19:27:04;;;;;;;11.12;6.95;;;;;;;;;;4189358;84;28539;-91
2022/07/26 19:33:10;;;;;;;9.93;7.12;;;;;;;;;;4189554;84;28481;-93
2022/07/26 19:39:18;;;;;;;10.93;7.17;;;;;;;;;;4184542;83;28535;-87
2022/07/26 19:45:27;;;;;;;11.88;7.72;;;;;;;;;;4127002;84;28508;-86
2022/07/26 19:51:34;;;;;;;15.50;8.98;;;;;;;;;;4178808;85;28523;-89
2022/07/26 19:57:36;;;;;;;10.48;8.43;;;;;;;;;;4186539;83;28557;-89
2022/07/26 20:03:43;;;;;;;12.82;7.83;;;;;;;;;;4210989;84;28474;-88
2022/07/26 20:09:49;;;;;;;12.33;8.10;;;;;;;;;;4180004;83;28523;-87
2022/07/26 20:15:54;;;;;;;13.70;8.10;;;;;;;;;;4172788;84;28510;-91
2022/07/26 20:21:57;;;;;;;10.93;7.90;;;;;;;;;;4180115;85;28512;-89
2022/07/26 20:28:07;;;;;;;13.20;8.18;;;;;;;;;;4182578;85;28535;-88
2022/07/26 20:34:15;;;;;;;11.57;7.90;;;;;;;;;;4183388;85;28533;-90
2022/07/26 20:40:27;;;;;;;10.45;7.50;;;;;;;;;;4185077;85;28496;-89
2022/07/26 20:46:38;;;;;;;10.43;7.47;;;;;;;;;;4183628;85;28516;-90
2022/07/26 20:52:43;;;;;;;12.07;7.25;;;;;;;;;;4189666;85;28484;-90
2022/07/26 20:58:44;;;;;;;11.40;7.33;;;;;;;;;;4185957;85;28495;-90
2022/07/26 21:04:50;;;;;;;11.00;7.92;;;;;;;;;;4183622;84;28514;-91
2022/07/26 21:10:57;;;;;;;16.97;11.03;;;;;;;;;;4183602;85;28524;-90
2022/07/26 21:17:07;;;;;;;10.63;7.08;;;;;;;;;;4183585;85;28561;-89
2022/07/26 21:23:19;;;;;;;10.30;7.15;;;;;;;;;;4162973;85;28613;-89
2022/07/26 21:29:27;;;;;;;9.85;7.00;;;;;;;;;;4183081;85;28554;-88
2022/07/26 21:35:36;;;;;;;10.35;6.78;;;;;;;;;;4182921;85;28487;-90
2022/07/26 21:41:43;;;;;;;10.20;7.05;;;;;;;;;;4182982;85;28506;-89
2022/07/26 21:47:54;;;;;;;9.93;6.20;;;;;;;;;;4183159;85;28466;-89
2022/07/26 21:54:02;;;;;;;8.83;6.72;;;;;;;;;;4183958;85;28531;-89
2022/07/26 22:00:04;;;;;;;7.90;6.53;;;;;;;;;;4180450;84;28478;-89
2022/07/26 22:06:15;;;;;;;10.32;7.28;;;;;;;;;;4179715;85;28570;-90
2022/07/26 22:12:22;;;;;;;9.48;6.30;;;;;;;;;;4180772;84;28523;-92
2022/07/26 22:18:28;;;;;;;8.40;6.25;;;;;;;;;;4184676;85;28530;-92
2022/07/26 22:24:34;;;;;;;10.10;6.83;;;;;;;;;;4181182;85;28478;-91
2022/07/26 22:30:41;;;;;;;8.53;6.33;;;;;;;;;;4179627;85;28519;-91
2022/07/26 22:36:47;;;;;;;9.90;7.25;;;;;;;;;;4175879;85;28456;-91
2022/07/26 22:42:57;;;;;;;9.63;6.30;;;;;;;;;;4179470;85;28512;-87
2022/07/26 22:49:03;;;;;;;11.08;6.70;;;;;;;;;;4179767;85;28485;-87
2022/07/26 22:55:12;;;;;;;;;;;;;;;;;;4182982;85;28503;-88
2022/07/26 23:01:13;;;;;;;8.65;6.62;;;;;;;;;;4189667;84;20194;-88
2022/07/26 23:07:20;;;;;;;9.28;5.85;;;;;;;;;;4191920;85;28500;-88
2022/07/26 23:13:26;;;;;;;8.90;5.60;;;;;;;;;;4192508;85;28511;-89
2022/07/26 23:19:33;;;;;;;10.93;6.85;;;;;;;;;;4191945;84;28480;-88
2022/07/26 23:25:40;;;;;;;13.93;8.48;;;;;;;;;;4191801;85;28491;-88
2022/07/26 23:31:47;;;;;;;15.95;9.25;;;;;;;;;;4192120;85;28506;-87
2022/07/26 23:37:53;;;;;;;17.15;10.10;;;;;;;;;;4191478;85;28456;-88
2022/07/26 23:44:02;;;;;;;16.85;8.18;;;;;;;;;;4196593;84;28519;-87
2022/07/26 23:50:08;;;;;;;12.88;7.67;;;;;;;;;;4191821;85;28460;-88
2022/07/26 23:56:10;;;;;;;13.28;7.22;;;;;;;;;;4191431;84;28542;-88
